sensor_id;sensor_type;location;lat;lon;timestamp;pressure;altitude;pressure_sealevel;temperature;humidity
75521;BME280;64102;48.628;9.002;2024-01-07T00:01:24;95322.28;;;2.53;100.00
75521;BME280;64102;48.628;9.002;2024-01-07T00:03:51;95329.09;;;2.53;100.00
75521;BME280;64102;48.628;9.002;2024-01-07T00:06:16;95330.00;;;2.52;100.00
75521;BME280;64102;48.628;9.002;2024-01-07T00:08:41;95325.63;;;2.54;100.00
75521;BME280;64102;48.628;9.002;2024-01-07T00:11:07;95324.69;;;2.55;100.00
75521;BME280;64102;48.628;9.002;2024-01-07T00:13:32;95322.97;;;2.55;100.00
75521;BME280;64102;48.628;9.002;2024-01-07T00:15:57;95325.50;;;2.55;100.00
75521;BME280;64102;48.628;9.002;2024-01-07T00:18:23;95326.31;;;2.56;100.00
75521;BME280;64102;48.628;9.002;2024-01-07T00:20:49;95337.72;;;2.63;100.00
75521;BME280;64102;48.628;9.002;2024-01-07T00:23:15;95329.03;;;2.65;100.00
75521;BME280;64102;48.628;9.002;2024-01-07T00:25:40;95326.81;;;2.61;100.00
75521;BME280;64102;48.628;9.002;2024-01-07T00:28:05;95330.88;;;2.63;100.00
75521;BME280;64102;48.628;9.002;2024-01-07T00:30:31;95328.69;;;2.59;100.00
75521;BME280;64102;48.628;9.002;2024-01-07T00:32:56;95326.13;;;2.59;100.00
75521;BME280;64102;48.628;9.002;2024-01-07T00:35:21;95330.59;;;2.55;100.00
75521;BME280;64102;48.628;9.002;2024-01-07T00:37:47;95327.13;;;2.56;100.00
75521;BME280;64102;48.628;9.002;2024-01-07T00:40:12;95329.59;;;2.58;100.00
75521;BME280;64102;48.628;9.002;2024-01-07T00:42:38;95329.59;;;2.58;100.00
75521;BME280;64102;48.628;9.002;2024-01-07T00:45:03;95324.59;;;2.56;100.00
75521;BME280;64102;48.628;9.002;2024-01-07T00:47:29;95326.47;;;2.54;100.00
75521;BME280;64102;48.628;9.002;2024-01-07T00:49:54;95331.53;;;2.54;100.00
75521;BME280;64102;48.628;9.002;2024-01-07T00:52:19;95329.91;;;2.53;100.00
75521;BME280;64102;48.628;9.002;2024-01-07T00:54:46;95325.72;;;2.52;100.00
75521;BME280;64102;48.628;9.002;2024-01-07T00:57:11;95330.84;;;2.52;100.00
75521;BME280;64102;48.628;9.002;2024-01-07T00:59:37;95329.19;;;2.51;100.00
75521;BME280;64102;48.628;9.002;2024-01-07T01:02:03;95330.94;;;2.51;100.00
75521;BME280;64102;48.628;9.002;2024-01-07T01:04:29;95331.97;;;2.48;100.00
75521;BME280;64102;48.628;9.002;2024-01-07T01:06:54;95325.97;;;2.49;100.00
75521;BME280;64102;48.628;9.002;2024-01-07T01:09:19;95330.94;;;2.51;100.00
75521;BME280;64102;48.628;9.002;2024-01-07T01:11:45;95335.91;;;2.52;100.00
75521;BME280;64102;48.628;9.002;2024-01-07T01:14:10;95333.97;;;2.56;100.00
75521;BME280;64102;48.628;9.002;2024-01-07T01:16:36;95328.81;;;2.68;100.00
75521;BME280;64102;48.628;9.002;2024-01-07T01:19:01;95333.22;;;2.66;100.00
75521;BME280;64102;48.628;9.002;2024-01-07T01:21:27;95339.28;;;2.53;100.00
75521;BME280;64102;48.628;9.002;2024-01-07T01:23:52;95339.84;;;2.45;100.00
75521;BME280;64102;48.628;9.002;2024-01-07T01:26:17;95342.38;;;2.45;100.00
75521;BME280;64102;48.628;9.002;2024-01-07T01:28:43;95335.75;;;2.43;100.00
75521;BME280;64102;48.628;9.002;2024-01-07T01:31:08;95347.34;;;2.47;100.00
75521;BME280;64102;48.628;9.002;2024-01-07T01:33:37;95347.66;;;2.42;100.00
75521;BME280;64102;48.628;9.002;2024-01-07T01:36:06;95342.69;;;2.41;100.00
75521;BME280;64102;48.628;9.002;2024-01-07T01:38:31;95348.81;;;2.38;100.00
75521;BME280;64102;48.628;9.002;2024-01-07T01:40:57;95352.25;;;2.37;100.00
75521;BME280;64102;48.628;9.002;2024-01-07T01:43:27;95349.72;;;2.37;100.00
75521;BME280;64102;48.628;9.002;2024-01-07T01:45:53;95355.75;;;2.36;100.00
75521;BME280;64102;48.628;9.002;2024-01-07T01:48:19;95355.75;;;2.36;100.00
75521;BME280;64102;48.628;9.002;2024-01-07T01:50:46;95352.38;;;2.36;100.00
75521;BME280;64102;48.628;9.002;2024-01-07T01:53:12;95350.03;;;2.33;100.00
75521;BME280;64102;48.628;9.002;2024-01-07T01:55:38;95351.88;;;2.31;100.00
75521;BME280;64102;48.628;9.002;2024-01-07T01:58:04;95342.78;;;2.39;100.00
75521;BME280;64102;48.628;9.002;2024-01-07T02:00:30;95347.41;;;2.34;100.00
75521;BME280;64102;48.628;9.002;2024-01-07T02:02:55;95349.25;;;2.32;100.00
75521;BME280;64102;48.628;9.002;2024-01-07T02:05:21;95352.91;;;2.28;100.00
75521;BME280;64102;48.628;9.002;2024-01-07T02:07:47;95353.72;;;2.29;100.00
75521;BME280;64102;48.628;9.002;2024-01-07T02:10:13;95351.88;;;2.31;100.00
75521;BME280;64102;48.628;9.002;2024-01-07T02:12:38;95349.88;;;2.23;100.00
75521;BME280;64102;48.628;9.002;2024-01-07T02:15:04;95357.53;;;2.23;100.00
75521;BME280;64102;48.628;9.002;2024-01-07T02:17:30;95352.22;;;2.26;100.00
75521;BME280;64102;48.628;9.002;2024-01-07T02:19:55;95356.09;;;2.19;100.00
75521;BME280;64102;48.628;9.002;2024-01-07T02:22:21;95347.66;;;2.18;100.00
75521;BME280;64102;48.628;9.002;2024-01-07T02:24:46;95355.59;;;2.14;100.00
75521;BME280;64102;48.628;9.002;2024-01-07T02:27:11;95356.31;;;2.16;100.00
75521;BME280;64102;48.628;9.002;2024-01-07T02:29:37;95358.84;;;2.16;100.00
75521;BME280;64102;48.628;9.002;2024-01-07T02:32:02;95353.25;;;2.11;100.00
75521;BME280;64102;48.628;9.002;2024-01-07T02:34:28;95352.94;;;2.15;100.00
75521;BME280;64102;48.628;9.002;2024-01-07T02:36:53;95348.97;;;2.11;100.00
75521;BME280;64102;48.628;9.002;2024-01-07T02:39:19;95356.91;;;2.19;100.00
75521;BME280;64102;48.628;9.002;2024-01-07T02:41:45;95351.94;;;2.18;100.00
75521;BME280;64102;48.628;9.002;2024-01-07T02:44:10;95353.13;;;2.25;100.00
75521;BME280;64102;48.628;9.002;2024-01-07T02:46:36;95356.09;;;2.19;100.00
75521;BME280;64102;48.628;9.002;2024-01-07T02:49:01;95351.13;;;2.17;100.00
75521;BME280;64102;48.628;9.002;2024-01-07T02:51:27;95357.94;;;2.17;100.00
75521;BME280;64102;48.628;9.002;2024-01-07T02:53:52;95354.06;;;2.11;100.00
75521;BME280;64102;48.628;9.002;2024-01-07T02:56:17;95357.44;;;2.12;100.00
75521;BME280;64102;48.628;9.002;2024-01-07T02:58:43;95352.34;;;2.12;100.00
75521;BME280;64102;48.628;9.002;2024-01-07T03:01:09;95357.44;;;2.12;100.00
75521;BME280;64102;48.628;9.002;2024-01-07T03:03:35;95350.03;;;2.09;100.00
75521;BME280;64102;48.628;9.002;2024-01-07T03:06:00;95355.09;;;2.09;100.00
75521;BME280;64102;48.628;9.002;2024-01-07T03:08:25;95350.03;;;2.09;100.00
75521;BME280;64102;48.628;9.002;2024-01-07T03:10:51;95357.44;;;2.12;100.00
75521;BME280;64102;48.628;9.002;2024-01-07T03:13:16;95357.22;;;2.15;100.00
75521;BME280;64102;48.628;9.002;2024-01-07T03:15:42;95358.34;;;2.11;100.00
75521;BME280;64102;48.628;9.002;2024-01-07T03:18:07;95370.16;;;2.12;100.00
75521;BME280;64102;48.628;9.002;2024-01-07T03:20:33;95363.34;;;2.12;100.00
75521;BME280;64102;48.628;9.002;2024-01-07T03:23:00;95359.06;;;2.13;100.00
75521;BME280;64102;48.628;9.002;2024-01-07T03:25:25;95364.97;;;2.13;100.00
75521;BME280;64102;48.628;9.002;2024-01-07T03:27:51;95369.34;;;2.11;100.00
75521;BME280;64102;48.628;9.002;2024-01-07T03:30:16;95360.69;;;2.14;100.00
75521;BME280;64102;48.628;9.002;2024-01-07T03:32:41;95368.34;;;2.14;100.00
75521;BME280;64102;48.628;9.002;2024-01-07T03:35:07;95368.34;;;2.14;100.00
75521;BME280;64102;48.628;9.002;2024-01-07T03:37:34;95373.44;;;2.14;100.00
75521;BME280;64102;48.628;9.002;2024-01-07T03:39:59;95376.66;;;2.16;100.00
75521;BME280;64102;48.628;9.002;2024-01-07T03:42:25;95371.78;;;2.13;100.00
75521;BME280;64102;48.628;9.002;2024-01-07T03:44:50;95371.97;;;2.10;100.00
75521;BME280;64102;48.628;9.002;2024-01-07T03:47:16;95376.97;;;2.11;100.00
75521;BME280;64102;48.628;9.002;2024-01-07T03:49:41;95373.59;;;2.11;100.00
75521;BME280;64102;48.628;9.002;2024-01-07T03:52:07;95378.91;;;2.08;100.00
75521;BME280;64102;48.628;9.002;2024-01-07T03:54:32;95374.66;;;2.08;100.00
75521;BME280;64102;48.628;9.002;2024-01-07T03:56:58;95378.00;;;2.09;100.00
75521;BME280;64102;48.628;9.002;2024-01-07T03:59:23;95379.63;;;2.10;100.00
75521;BME280;64102;48.628;9.002;2024-01-07T04:01:50;95379.75;;;2.08;100.00
75521;BME280;64102;48.628;9.002;2024-01-07T04:04:16;95376.16;;;2.11;100.00
75521;BME280;64102;48.628;9.002;2024-01-07T04:06:41;95376.75;;;2.14;100.00
75521;BME280;64102;48.628;9.002;2024-01-07T04:09:07;95375.97;;;2.14;100.00
75521;BME280;64102;48.628;9.002;2024-01-07T04:11:38;95382.06;;;2.11;100.00
75521;BME280;64102;48.628;9.002;2024-01-07T04:14:04;95381.25;;;2.11;100.00
75521;BME280;64102;48.628;9.002;2024-01-07T04:16:29;95382.06;;;2.11;100.00
75521;BME280;64102;48.628;9.002;2024-01-07T04:18:54;95381.16;;;2.12;100.00
75521;BME280;64102;48.628;9.002;2024-01-07T04:21:20;95386.56;;;2.08;100.00
75521;BME280;64102;48.628;9.002;2024-01-07T04:23:46;95377.41;;;2.05;100.00
75521;BME280;64102;48.628;9.002;2024-01-07T04:26:11;95384.91;;;2.07;100.00
75521;BME280;64102;48.628;9.002;2024-01-07T04:28:42;95393.47;;;2.06;100.00
75521;BME280;64102;48.628;9.002;2024-01-07T04:31:08;95387.47;;;2.07;100.00
75521;BME280;64102;48.628;9.002;2024-01-07T04:33:33;95390.91;;;2.06;100.00
75521;BME280;64102;48.628;9.002;2024-01-07T04:35:59;95396.94;;;2.05;100.00
75521;BME280;64102;48.628;9.002;2024-01-07T04:38:26;95397.88;;;2.04;100.00
75521;BME280;64102;48.628;9.002;2024-01-07T04:40:52;95401.63;;;1.98;100.00
75521;BME280;64102;48.628;9.002;2024-01-07T04:43:20;95397.75;;;1.93;100.00
75521;BME280;64102;48.628;9.002;2024-01-07T04:45:46;95395.53;;;1.88;100.00
75521;BME280;64102;48.628;9.002;2024-01-07T04:48:12;95405.00;;;1.86;100.00
75521;BME280;64102;48.628;9.002;2024-01-07T04:50:39;95403.38;;;1.85;100.00
75521;BME280;64102;48.628;9.002;2024-01-07T04:53:05;95408.53;;;1.84;100.00
75521;BME280;64102;48.628;9.002;2024-01-07T04:55:30;95408.53;;;1.84;100.00
75521;BME280;64102;48.628;9.002;2024-01-07T04:57:56;95408.38;;;1.87;100.00
75521;BME280;64102;48.628;9.002;2024-01-07T05:00:21;95409.19;;;1.87;100.00
75521;BME280;64102;48.628;9.002;2024-01-07T05:02:47;95406.50;;;1.89;100.00
75521;BME280;64102;48.628;9.002;2024-01-07T05:05:12;95412.41;;;1.89;100.00
75521;BME280;64102;48.628;9.002;2024-01-07T05:07:37;95420.03;;;1.89;100.00
75521;BME280;64102;48.628;9.002;2024-01-07T05:10:04;95420.13;;;1.88;100.00
75521;BME280;64102;48.628;9.002;2024-01-07T05:12:29;95416.91;;;1.86;100.00
75521;BME280;64102;48.628;9.002;2024-01-07T05:14:54;95426.88;;;1.89;100.00
75521;BME280;64102;48.628;9.002;2024-01-07T05:17:20;95425.22;;;1.88;100.00
75521;BME280;64102;48.628;9.002;2024-01-07T05:19:45;95431.34;;;1.85;100.00
75521;BME280;64102;48.628;9.002;2024-01-07T05:22:11;95433.06;;;1.85;100.00
75521;BME280;64102;48.628;9.002;2024-01-07T05:24:37;95429.84;;;1.83;100.00
75521;BME280;64102;48.628;9.002;2024-01-07T05:27:04;95431.66;;;1.80;100.00
75521;BME280;64102;48.628;9.002;2024-01-07T05:29:29;95429.84;;;1.83;100.00
75521;BME280;64102;48.628;9.002;2024-01-07T05:31:55;95428.06;;;1.83;100.00
75521;BME280;64102;48.628;9.002;2024-01-07T05:34:20;95429.09;;;1.80;100.00
75521;BME280;64102;48.628;9.002;2024-01-07T05:36:45;95429.09;;;1.80;100.00
75521;BME280;64102;48.628;9.002;2024-01-07T05:39:11;95431.75;;;1.79;100.00
75521;BME280;64102;48.628;9.002;2024-01-07T05:41:39;95429.09;;;1.80;100.00
75521;BME280;64102;48.628;9.002;2024-01-07T05:44:06;95437.66;;;1.79;100.00
75521;BME280;64102;48.628;9.002;2024-01-07T05:46:32;95440.09;;;1.81;100.00
75521;BME280;64102;48.628;9.002;2024-01-07T05:48:58;95447.81;;;1.79;100.00
75521;BME280;64102;48.628;9.002;2024-01-07T05:51:24;95445.28;;;1.79;100.00
75521;BME280;64102;48.628;9.002;2024-01-07T05:53:49;95448.94;;;1.75;100.00
75521;BME280;64102;48.628;9.002;2024-01-07T05:56:15;95446.41;;;1.75;100.00
75521;BME280;64102;48.628;9.002;2024-01-07T05:58:40;95449.84;;;1.74;100.00
75521;BME280;64102;48.628;9.002;2024-01-07T06:01:07;95453.22;;;1.75;100.00
75521;BME280;64102;48.628;9.002;2024-01-07T06:03:33;95451.47;;;1.75;100.00
75521;BME280;64102;48.628;9.002;2024-01-07T06:05:59;95454.75;;;1.77;100.00
75521;BME280;64102;48.628;9.002;2024-01-07T06:08:25;95451.47;;;1.75;100.00
75521;BME280;64102;48.628;9.002;2024-01-07T06:10:51;95451.47;;;1.75;100.00
75521;BME280;64102;48.628;9.002;2024-01-07T06:13:16;95449.16;;;1.72;100.00
75521;BME280;64102;48.628;9.002;2024-01-07T06:15:42;95457.69;;;1.71;100.00
75521;BME280;64102;48.628;9.002;2024-01-07T06:18:07;95460.16;;;1.73;100.00
75521;BME280;64102;48.628;9.002;2024-01-07T06:20:32;95452.38;;;1.74;100.00
75521;BME280;64102;48.628;9.002;2024-01-07T06:22:58;95455.75;;;1.75;100.00
75521;BME280;64102;48.628;9.002;2024-01-07T06:25:23;95460.84;;;1.75;100.00
75521;BME280;64102;48.628;9.002;2024-01-07T06:27:51;95456.38;;;1.78;100.00
75521;BME280;64102;48.628;9.002;2024-01-07T06:30:17;95464.09;;;1.77;100.00
75521;BME280;64102;48.628;9.002;2024-01-07T06:32:44;95469.19;;;1.77;100.00
75521;BME280;64102;48.628;9.002;2024-01-07T06:35:10;95470.00;;;1.77;100.00
75521;BME280;64102;48.628;9.002;2024-01-07T06:37:36;95470.72;;;1.79;100.00
75521;BME280;64102;48.628;9.002;2024-01-07T06:40:01;95471.75;;;1.77;100.00
75521;BME280;64102;48.628;9.002;2024-01-07T06:42:26;95471.53;;;1.80;100.00
75521;BME280;64102;48.628;9.002;2024-01-07T06:44:52;95479.97;;;1.80;100.00
75521;BME280;64102;48.628;9.002;2024-01-07T06:47:17;95481.63;;;1.82;100.00
75521;BME280;64102;48.628;9.002;2024-01-07T06:49:42;95490.06;;;1.82;100.00
75521;BME280;64102;48.628;9.002;2024-01-07T06:52:08;95484.97;;;1.82;100.00
75521;BME280;64102;48.628;9.002;2024-01-07T06:54:33;95484.16;;;1.82;100.00
75521;BME280;64102;48.628;9.002;2024-01-07T06:56:59;95486.69;;;1.82;100.00
75521;BME280;64102;48.628;9.002;2024-01-07T06:59:24;95491.78;;;1.82;100.00
75521;BME280;64102;48.628;9.002;2024-01-07T07:01:50;95491.66;;;1.83;100.00
75521;BME280;64102;48.628;9.002;2024-01-07T07:04:15;95495.84;;;1.84;100.00
75521;BME280;64102;48.628;9.002;2024-01-07T07:06:40;95502.06;;;1.80;100.00
75521;BME280;64102;48.628;9.002;2024-01-07T07:09:06;95496.88;;;1.82;100.00
75521;BME280;64102;48.628;9.002;2024-01-07T07:11:32;95504.59;;;1.80;100.00
75521;BME280;64102;48.628;9.002;2024-01-07T07:13:57;95509.69;;;1.80;100.00
75521;BME280;64102;48.628;9.002;2024-01-07T07:16:23;95508.97;;;1.78;100.00
75521;BME280;64102;48.628;9.002;2024-01-07T07:18:48;95507.44;;;1.75;100.00
75521;BME280;64102;48.628;9.002;2024-01-07T07:21:13;95518.44;;;1.76;100.00
75521;BME280;64102;48.628;9.002;2024-01-07T07:23:39;95522.69;;;1.75;100.00
75521;BME280;64102;48.628;9.002;2024-01-07T07:26:04;95527.91;;;1.74;100.00
75521;BME280;64102;48.628;9.002;2024-01-07T07:28:29;95535.63;;;1.72;100.00
75521;BME280;64102;48.628;9.002;2024-01-07T07:30:55;95539.06;;;1.71;100.00
75521;BME280;64102;48.628;9.002;2024-01-07T07:33:20;95536.72;;;1.68;100.00
75521;BME280;64102;48.628;9.002;2024-01-07T07:35:45;95541.09;;;1.66;100.00
75521;BME280;64102;48.628;9.002;2024-01-07T07:38:11;95547.19;;;1.64;100.00
75521;BME280;64102;48.628;9.002;2024-01-07T07:40:36;95542.19;;;1.62;100.00
75521;BME280;64102;48.628;9.002;2024-01-07T07:43:02;95552.56;;;1.59;100.00
75521;BME280;64102;48.628;9.002;2024-01-07T07:45:27;95544.34;;;1.56;100.00
75521;BME280;64102;48.628;9.002;2024-01-07T07:47:53;95546.97;;;1.54;100.00
75521;BME280;64102;48.628;9.002;2024-01-07T07:50:19;95560.69;;;1.52;100.00
75521;BME280;64102;48.628;9.002;2024-01-07T07:52:45;95556.41;;;1.52;100.00
75521;BME280;64102;48.628;9.002;2024-01-07T07:55:10;95555.50;;;1.53;100.00
75521;BME280;64102;48.628;9.002;2024-01-07T07:57:36;95557.34;;;1.51;100.00
75521;BME280;64102;48.628;9.002;2024-01-07T08:00:04;95557.50;;;1.48;100.00
75521;BME280;64102;48.628;9.002;2024-01-07T08:02:30;95558.44;;;1.47;100.00
75521;BME280;64102;48.628;9.002;2024-01-07T08:04:55;95557.91;;;1.42;100.00
75521;BME280;64102;48.628;9.002;2024-01-07T08:07:21;95556.28;;;1.41;100.00
75521;BME280;64102;48.628;9.002;2024-01-07T08:09:46;95561.38;;;1.41;100.00
75521;BME280;64102;48.628;9.002;2024-01-07T08:12:12;95559.94;;;1.37;100.00
75521;BME280;64102;48.628;9.002;2024-01-07T08:14:37;95572.81;;;1.34;100.00
75521;BME280;64102;48.628;9.002;2024-01-07T08:17:06;95575.25;;;1.35;100.00
75521;BME280;64102;48.628;9.002;2024-01-07T08:19:32;95573.81;;;1.31;100.00
75521;BME280;64102;48.628;9.002;2024-01-07T08:21:57;95585.81;;;1.29;100.00
75521;BME280;64102;48.628;9.002;2024-01-07T08:24:22;95582.84;;;1.23;100.00
75521;BME280;64102;48.628;9.002;2024-01-07T08:26:48;95579.75;;;1.18;100.00
75521;BME280;64102;48.628;9.002;2024-01-07T08:29:13;95579.84;;;1.16;100.00
75521;BME280;64102;48.628;9.002;2024-01-07T08:31:39;95593.66;;;1.12;100.00
75521;BME280;64102;48.628;9.002;2024-01-07T08:34:04;95595.38;;;1.12;100.00
75521;BME280;64102;48.628;9.002;2024-01-07T08:36:30;95588.56;;;1.12;100.00
75521;BME280;64102;48.628;9.002;2024-01-07T08:38:55;95588.56;;;1.12;100.00
75521;BME280;64102;48.628;9.002;2024-01-07T08:41:21;95584.50;;;1.10;100.00
75521;BME280;64102;48.628;9.002;2024-01-07T08:43:46;95592.13;;;1.10;100.00
75521;BME280;64102;48.628;9.002;2024-01-07T08:46:12;95594.03;;;1.06;100.00
75521;BME280;64102;48.628;9.002;2024-01-07T08:48:39;95592.75;;;1.13;100.00
75521;BME280;64102;48.628;9.002;2024-01-07T08:51:04;95591.84;;;1.14;100.00
75521;BME280;64102;48.628;9.002;2024-01-07T08:53:30;95603.16;;;1.23;100.00
75521;BME280;64102;48.628;9.002;2024-01-07T08:55:56;95600.56;;;1.10;100.00
75521;BME280;64102;48.628;9.002;2024-01-07T08:58:21;95607.16;;;1.13;100.00
75521;BME280;64102;48.628;9.002;2024-01-07T09:00:46;95604.09;;;1.08;100.00
75521;BME280;64102;48.628;9.002;2024-01-07T09:03:12;95617.34;;;1.13;100.00
75521;BME280;64102;48.628;9.002;2024-01-07T09:05:38;95612.72;;;1.05;100.00
75521;BME280;64102;48.628;9.002;2024-01-07T09:08:03;95621.78;;;1.09;100.00
75521;BME280;64102;48.628;9.002;2024-01-07T09:10:29;95623.22;;;1.13;100.00
75521;BME280;64102;48.628;9.002;2024-01-07T09:12:54;95625.41;;;1.19;100.00
75521;BME280;64102;48.628;9.002;2024-01-07T09:15:20;95634.94;;;1.16;100.00
75521;BME280;64102;48.628;9.002;2024-01-07T09:17:46;95628.13;;;1.16;100.00
75521;BME280;64102;48.628;9.002;2024-01-07T09:20:12;95635.47;;;1.21;100.00
75521;BME280;64102;48.628;9.002;2024-01-07T09:22:38;95644.19;;;1.17;100.00
75521;BME280;64102;48.628;9.002;2024-01-07T09:25:04;95646.00;;;1.15;100.00
75521;BME280;64102;48.628;9.002;2024-01-07T09:27:30;95647.19;;;1.09;100.00
75521;BME280;64102;48.628;9.002;2024-01-07T09:29:56;95650.56;;;1.10;100.00
75521;BME280;64102;48.628;9.002;2024-01-07T09:32:21;95647.38;;;1.06;100.00
75521;BME280;64102;48.628;9.002;2024-01-07T09:34:47;95649.94;;;1.06;100.00
75521;BME280;64102;48.628;9.002;2024-01-07T09:37:12;95656.00;;;1.04;100.00
75521;BME280;64102;48.628;9.002;2024-01-07T09:39:41;95650.75;;;1.07;100.00
75521;BME280;64102;48.628;9.002;2024-01-07T09:42:18;95650.09;;;1.03;100.00
75521;BME280;64102;48.628;9.002;2024-01-07T09:44:44;95659.34;;;1.04;100.00
75521;BME280;64102;48.628;9.002;2024-01-07T09:47:14;95659.16;;;1.07;100.00
75521;BME280;64102;48.628;9.002;2024-01-07T09:49:40;95658.53;;;1.04;100.00
75521;BME280;64102;48.628;9.002;2024-01-07T09:52:09;95646.75;;;1.03;100.00
75521;BME280;64102;48.628;9.002;2024-01-07T09:54:38;95655.91;;;1.05;100.00
75521;BME280;64102;48.628;9.002;2024-01-07T09:57:07;95655.63;;;1.10;100.00
75521;BME280;64102;48.628;9.002;2024-01-07T09:59:33;95652.91;;;1.13;100.00
75521;BME280;64102;48.628;9.002;2024-01-07T10:01:59;95649.47;;;1.14;100.00
75521;BME280;64102;48.628;9.002;2024-01-07T10:04:25;95657.34;;;1.23;100.00
75521;BME280;64102;48.628;9.002;2024-01-07T10:06:50;95655.00;;;1.20;100.00
75521;BME280;64102;48.628;9.002;2024-01-07T10:09:18;95648.16;;;1.35;100.00
75521;BME280;64102;48.628;9.002;2024-01-07T10:11:44;95644.06;;;1.47;100.00
75521;BME280;64102;48.628;9.002;2024-01-07T10:14:09;95640.66;;;1.60;100.00
75521;BME280;64102;48.628;9.002;2024-01-07T10:16:35;95642.41;;;1.46;100.00
75521;BME280;64102;48.628;9.002;2024-01-07T10:19:00;95639.34;;;1.41;100.00
75521;BME280;64102;48.628;9.002;2024-01-07T10:21:26;95644.44;;;1.41;100.00
75521;BME280;64102;48.628;9.002;2024-01-07T10:24:07;95641.06;;;1.40;100.00
75521;BME280;64102;48.628;9.002;2024-01-07T10:26:32;95638.72;;;1.37;100.00
75521;BME280;64102;48.628;9.002;2024-01-07T10:28:57;95644.16;;;1.31;100.00
75521;BME280;64102;48.628;9.002;2024-01-07T10:31:23;95642.53;;;1.30;100.00
75521;BME280;64102;48.628;9.002;2024-01-07T10:33:49;95650.44;;;1.25;100.00
75521;BME280;64102;48.628;9.002;2024-01-07T10:36:15;95643.81;;;1.23;100.00
75521;BME280;64102;48.628;9.002;2024-01-07T10:38:44;95645.66;;;1.07;100.00
75521;BME280;64102;48.628;9.002;2024-01-07T10:41:11;95649.75;;;0.95;100.00
75521;BME280;64102;48.628;9.002;2024-01-07T10:43:38;95650.75;;;0.93;100.00
75521;BME280;64102;48.628;9.002;2024-01-07T10:46:04;95641.75;;;0.87;100.00
75521;BME280;64102;48.628;9.002;2024-01-07T10:48:31;95651.91;;;0.87;100.00
75521;BME280;64102;48.628;9.002;2024-01-07T10:51:00;95649.47;;;0.85;100.00
75521;BME280;64102;48.628;9.002;2024-01-07T10:53:28;95654.81;;;0.81;100.00
75521;BME280;64102;48.628;9.002;2024-01-07T10:56:05;95662.53;;;0.79;100.00
75521;BME280;64102;48.628;9.002;2024-01-07T10:58:33;95659.25;;;0.77;100.00
75521;BME280;64102;48.628;9.002;2024-01-07T11:01:01;95659.63;;;0.71;100.00
75521;BME280;64102;48.628;9.002;2024-01-07T11:06:19;95656.81;;;0.62;100.00
75521;BME280;64102;48.628;9.002;2024-01-07T11:08:55;95651.63;;;0.63;100.00
75521;BME280;64102;48.628;9.002;2024-01-07T11:11:34;95664.59;;;0.59;100.00
75521;BME280;64102;48.628;9.002;2024-01-07T11:14:01;95663.34;;;0.66;100.00
75521;BME280;64102;48.628;9.002;2024-01-07T11:16:43;95659.88;;;0.53;100.00
75521;BME280;64102;48.628;9.002;2024-01-07T11:19:15;95660.16;;;0.48;100.00
75521;BME280;64102;48.628;9.002;2024-01-07T11:21:40;95661.78;;;0.49;100.00
75521;BME280;64102;48.628;9.002;2024-01-07T11:24:06;95669.56;;;0.46;100.00
75521;BME280;64102;48.628;9.002;2024-01-07T11:26:31;95665.75;;;0.39;100.00
75521;BME280;64102;48.628;9.002;2024-01-07T11:28:57;95674.78;;;0.29;100.00
75521;BME280;64102;48.628;9.002;2024-01-07T11:34:03;95670.78;;;0.25;100.00
75521;BME280;64102;48.628;9.002;2024-01-07T11:36:29;95675.84;;;0.25;100.00
75521;BME280;64102;48.628;9.002;2024-01-07T11:38:54;95676.50;;;0.28;100.00
75521;BME280;64102;48.628;9.002;2024-01-07T11:41:20;95676.84;;;0.22;100.00
75521;BME280;64102;48.628;9.002;2024-01-07T11:43:56;95673.25;;;0.26;100.00
75521;BME280;64102;48.628;9.002;2024-01-07T11:46:24;95669.97;;;0.24;100.00
75521;BME280;64102;48.628;9.002;2024-01-07T11:48:55;95676.84;;;0.22;100.00
75521;BME280;64102;48.628;9.002;2024-01-07T11:51:30;95675.22;;;0.21;100.00
75521;BME280;64102;48.628;9.002;2024-01-07T11:54:00;95673.50;;;0.22;100.00
75521;BME280;64102;48.628;9.002;2024-01-07T11:56:27;95678.56;;;0.22;100.00
75521;BME280;64102;48.628;9.002;2024-01-07T11:58:53;95678.47;;;0.23;100.00
75521;BME280;64102;48.628;9.002;2024-01-07T12:01:18;95677.50;;;0.26;100.00
75521;BME280;64102;48.628;9.002;2024-01-07T12:03:44;95676.56;;;0.27;100.00
75521;BME280;64102;48.628;9.002;2024-01-07T12:06:10;95685.66;;;0.31;100.00
75521;BME280;64102;48.628;9.002;2024-01-07T12:08:42;95677.06;;;0.33;100.00
75521;BME280;64102;48.628;9.002;2024-01-07T12:11:09;95681.56;;;0.28;100.00
75521;BME280;64102;48.628;9.002;2024-01-07T12:13:37;95680.22;;;0.37;100.00
75521;BME280;64102;48.628;9.002;2024-01-07T12:16:02;95675.16;;;0.37;100.00
75521;BME280;64102;48.628;9.002;2024-01-07T12:18:29;95675.97;;;0.37;100.00
75521;BME280;64102;48.628;9.002;2024-01-07T12:20:59;95674.84;;;0.27;100.00
75521;BME280;64102;48.628;9.002;2024-01-07T12:23:25;95683.41;;;0.26;100.00
75521;BME280;64102;48.628;9.002;2024-01-07T12:25:52;95681.75;;;0.25;100.00
75521;BME280;64102;48.628;9.002;2024-01-07T12:28:18;95684.38;;;0.24;100.00
75521;BME280;64102;48.628;9.002;2024-01-07T12:30:44;95681.13;;;0.22;100.00
75521;BME280;64102;48.628;9.002;2024-01-07T12:33:09;95679.66;;;0.18;100.00
75521;BME280;64102;48.628;9.002;2024-01-07T12:35:35;95682.81;;;0.21;100.00
75521;BME280;64102;48.628;9.002;2024-01-07T12:38:01;95685.53;;;0.18;100.00
75521;BME280;64102;48.628;9.002;2024-01-07T12:40:27;95678.16;;;0.14;100.00
75521;BME280;64102;48.628;9.002;2024-01-07T12:42:52;95685.69;;;0.15;100.00
75521;BME280;64102;48.628;9.002;2024-01-07T12:45:18;95684.81;;;0.16;100.00
75521;BME280;64102;48.628;9.002;2024-01-07T12:47:44;95688.47;;;0.26;100.00
75521;BME280;64102;48.628;9.002;2024-01-07T12:50:11;95687.16;;;0.19;100.00
75521;BME280;64102;48.628;9.002;2024-01-07T12:52:37;95687.84;;;0.07;100.00
75521;BME280;64102;48.628;9.002;2024-01-07T12:55:04;95675.16;;;0.07;100.00
75521;BME280;64102;48.628;9.002;2024-01-07T12:57:29;95689.00;;;0.02;100.00
75521;BME280;64102;48.628;9.002;2024-01-07T12:59:55;95687.47;;;-0.01;100.00